createdAt,value
2023-05-12T00:04:34.041Z,100.00
2023-05-12T00:09:36.930Z,100.00
2023-05-12T00:14:39.892Z,100.00
2023-05-12T00:19:44.270Z,100.00
2023-05-12T00:24:46.913Z,100.00
2023-05-12T00:29:49.711Z,100.00
2023-05-12T00:34:54.560Z,100.00
2023-05-12T00:39:57.190Z,100.00
2023-05-12T00:44:59.770Z,100.00
2023-05-12T00:50:04.710Z,100.00
2023-05-12T00:55:07.828Z,100.00
2023-05-12T01:00:11.753Z,100.00
2023-05-12T01:05:15.943Z,100.00
2023-05-12T01:10:20.192Z,100.00
2023-05-12T01:15:23.091Z,100.00
2023-05-12T01:20:29.596Z,100.00
2023-05-12T01:25:34.145Z,100.00
2023-05-12T01:30:41.703Z,100.00
2023-05-12T01:35:44.345Z,100.00
2023-05-12T01:40:46.922Z,100.00
2023-05-12T01:45:50.882Z,100.00
2023-05-12T01:50:53.575Z,100.00
2023-05-12T01:55:56.129Z,100.00
2023-05-12T02:01:00.161Z,100.00
2023-05-12T02:06:02.757Z,100.00
2023-05-12T02:11:06.831Z,100.00
2023-05-12T02:16:11.028Z,100.00
2023-05-12T02:21:13.670Z,100.00
2023-05-12T02:26:16.308Z,100.00
2023-05-12T02:31:20.403Z,100.00
2023-05-12T02:36:23.043Z,100.00
2023-05-12T02:41:25.561Z,100.00
2023-05-12T02:46:29.584Z,100.00
2023-05-12T02:51:32.200Z,100.00
2023-05-12T02:56:34.835Z,100.00
2023-05-12T03:01:38.854Z,100.00
2023-05-12T03:06:41.752Z,100.00
2023-05-12T03:11:44.423Z,100.00
2023-05-12T03:16:48.568Z,100.00
2023-05-12T03:21:51.291Z,100.00
2023-05-12T03:26:54.981Z,100.00
2023-05-12T03:31:59.038Z,100.00
2023-05-12T03:37:01.704Z,100.00
2023-05-12T03:42:04.468Z,100.00
2023-05-12T03:47:09.169Z,100.00
2023-05-12T03:52:12.341Z,100.00
2023-05-12T03:57:14.938Z,100.00
2023-05-12T04:02:18.992Z,100.00
2023-05-12T04:07:21.687Z,100.00
2023-05-12T04:12:24.285Z,100.00
2023-05-12T04:17:29.164Z,100.00
2023-05-12T04:22:32.045Z,100.00
2023-05-12T04:27:34.619Z,100.00
2023-05-12T04:32:38.668Z,100.00
2023-05-12T04:37:41.459Z,100.00
2023-05-12T04:42:44.048Z,100.00
2023-05-12T04:47:48.053Z,100.00
2023-05-12T04:52:50.774Z,100.00
2023-05-12T04:57:53.588Z,100.00
2023-05-12T05:02:57.740Z,100.00
2023-05-12T05:08:00.567Z,100.00
2023-05-12T05:13:03.199Z,100.00
2023-05-12T05:18:08.311Z,100.00
2023-05-12T05:23:12.098Z,100.00
2023-05-12T05:28:14.790Z,100.00
2023-05-12T05:33:18.796Z,100.00
2023-05-12T05:38:21.446Z,100.00
2023-05-12T05:43:25.368Z,100.00
2023-05-12T05:48:29.419Z,100.00
2023-05-12T05:53:32.056Z,100.00
2023-05-12T05:58:34.794Z,100.00
2023-05-12T06:03:38.973Z,100.00
2023-05-12T06:08:41.669Z,100.00
2023-05-12T06:13:44.401Z,100.00
2023-05-12T06:18:48.467Z,100.00
2023-05-12T06:23:51.565Z,100.00
2023-05-12T06:28:54.086Z,100.00
2023-05-12T06:33:58.090Z,100.00
2023-05-12T06:39:00.727Z,100.00
2023-05-12T06:44:03.493Z,100.00
2023-05-12T06:49:08.489Z,100.00
2023-05-12T06:54:11.199Z,100.00
2023-05-12T06:59:14.167Z,100.00
2023-05-12T07:04:19.314Z,100.00
2023-05-12T07:09:21.898Z,100.00
2023-05-12T07:14:24.735Z,100.00
2023-05-12T07:19:29.645Z,100.00
2023-05-12T07:24:32.358Z,100.00
2023-05-12T07:29:34.954Z,100.00
2023-05-12T07:34:38.948Z,100.00
2023-05-12T07:39:41.840Z,100.00
2023-05-12T07:44:44.970Z,100.00
2023-05-12T07:49:49.020Z,100.00
2023-05-12T07:54:51.722Z,100.00
2023-05-12T07:59:54.244Z,100.00
2023-05-12T08:04:58.270Z,100.00
2023-05-12T08:10:00.928Z,100.00
2023-05-12T08:15:03.526Z,100.00
2023-05-12T08:20:09.140Z,100.00
2023-05-12T08:25:13.515Z,100.00
2023-05-12T08:30:16.610Z,100.00
2023-05-12T08:35:23.175Z,100.00
2023-05-12T08:40:26.553Z,100.00
2023-05-12T08:45:30.288Z,100.00
2023-05-12T08:50:36.848Z,100.00
2023-05-12T08:55:48.209Z,100.00
2023-05-12T09:01:01.538Z,100.00
2023-05-12T09:06:07.518Z,100.00
2023-05-12T09:11:13.025Z,98.28
2023-05-12T09:16:17.663Z,73.42
2023-05-12T09:21:22.279Z,72.63
2023-05-12T09:26:25.896Z,63.80
2023-05-12T09:31:28.613Z,59.24
2023-05-12T09:36:35.203Z,61.93
2023-05-12T09:41:38.442Z,55.68
2023-05-12T09:46:41.116Z,64.14
2023-05-12T09:51:47.416Z,65.47
2023-05-12T09:56:50.383Z,60.79
2023-05-12T10:01:54.379Z,63.64
2023-05-12T10:06:59.464Z,74.46
2023-05-12T10:12:04.387Z,74.34
2023-05-12T10:17:07.825Z,69.51
2023-05-12T10:22:13.275Z,63.14
2023-05-12T10:27:18.151Z,60.81
2023-05-12T10:32:20.820Z,59.01
2023-05-12T10:37:24.843Z,53.05
2023-05-12T10:42:27.399Z,51.29
2023-05-12T10:47:38.059Z,53.00
2023-05-12T10:52:42.671Z,57.09
2023-05-12T10:57:51.993Z,54.32
2023-05-12T11:02:58.077Z,52.56
2023-05-12T11:08:05.511Z,54.99
2023-05-12T11:13:09.045Z,54.35
2023-05-12T11:18:12.599Z,55.68
2023-05-12T11:23:27.319Z,53.90
2023-05-12T11:28:29.982Z,55.30
2023-05-12T11:33:32.650Z,59.78
2023-05-12T11:38:36.685Z,56.30
2023-05-12T11:43:39.309Z,51.30
2023-05-12T11:48:41.941Z,53.84
2023-05-12T11:53:45.960Z,49.12
2023-05-12T11:58:56.858Z,50.78
2023-05-12T12:03:59.552Z,51.14
2023-05-12T12:09:03.496Z,47.96
2023-05-12T12:14:06.114Z,48.16
2023-05-12T12:19:08.917Z,49.45
2023-05-12T12:24:13.074Z,46.90
2023-05-12T12:29:16.046Z,45.94
2023-05-12T12:34:19.182Z,48.36
2023-05-12T12:39:23.310Z,50.80
2023-05-12T12:44:25.946Z,48.16
2023-05-12T12:49:28.711Z,48.99
2023-05-12T12:54:33.938Z,46.51
2023-05-12T12:59:37.292Z,47.21
2023-05-12T13:04:40.104Z,46.89
2023-05-12T13:09:44.813Z,46.67
2023-05-12T13:14:47.490Z,44.06
2023-05-12T13:19:50.163Z,43.04
2023-05-12T13:24:54.178Z,40.23
2023-05-12T13:29:56.748Z,42.80
2023-05-12T13:34:59.656Z,42.73
2023-05-12T13:40:03.668Z,37.66
2023-05-12T13:45:07.476Z,38.72
2023-05-12T13:50:10.625Z,39.08
2023-05-12T13:55:20.494Z,40.37
2023-05-12T14:00:26.998Z,41.88
2023-05-12T14:05:29.619Z,40.91
2023-05-12T14:10:35.409Z,41.23
2023-05-12T14:15:48.581Z,42.76
2023-05-12T14:20:52.842Z,44.20
2023-05-12T14:25:56.860Z,46.53
2023-05-12T14:30:59.549Z,46.65
2023-05-12T14:36:07.207Z,42.86
2023-05-12T14:41:12.170Z,39.90
2023-05-12T14:46:14.788Z,36.12
2023-05-12T14:51:17.686Z,38.26
2023-05-12T14:56:21.919Z,40.75
2023-05-12T15:01:24.546Z,40.68
2023-05-12T15:06:27.253Z,42.17
2023-05-12T15:11:31.238Z,39.26
2023-05-12T15:16:33.931Z,38.31
2023-05-12T15:21:36.909Z,37.90
2023-05-12T15:26:41.013Z,38.17
2023-05-12T15:31:44.262Z,40.32
2023-05-12T15:36:48.780Z,39.32
2023-05-12T15:41:53.015Z,40.99
2023-05-12T15:46:55.718Z,42.29
2023-05-12T15:51:58.390Z,41.87
2023-05-12T15:57:02.632Z,37.84
2023-05-12T16:02:05.329Z,37.09
2023-05-12T16:07:07.993Z,36.81
2023-05-12T16:12:12.229Z,40.27
2023-05-12T16:17:15.023Z,41.80
2023-05-12T16:22:17.688Z,41.35
2023-05-12T16:27:21.652Z,38.29
2023-05-12T16:32:25.300Z,37.85
2023-05-12T16:37:28.226Z,37.57
2023-05-12T16:42:34.414Z,37.60
2023-05-12T16:47:37.078Z,37.68
2023-05-12T16:52:39.773Z,37.73
2023-05-12T16:57:43.896Z,37.89
2023-05-12T17:02:46.599Z,37.77
2023-05-12T17:07:49.360Z,38.29
2023-05-12T17:12:53.671Z,37.77
2023-05-12T17:17:56.681Z,37.53
2023-05-12T17:22:59.498Z,39.11
2023-05-12T17:28:04.429Z,39.76
2023-05-12T17:33:08.414Z,39.94
2023-05-12T17:38:11.608Z,38.25
2023-05-12T17:43:16.069Z,39.96
2023-05-12T17:48:19.877Z,41.68
2023-05-12T17:53:22.805Z,44.17
2023-05-12T17:58:27.076Z,46.56
2023-05-12T18:03:29.983Z,49.50
2023-05-12T18:08:32.850Z,50.61
2023-05-12T18:13:36.794Z,53.20
2023-05-12T18:18:39.415Z,54.96
2023-05-12T18:23:42.512Z,55.11
2023-05-12T18:28:46.443Z,55.46
2023-05-12T18:33:49.516Z,56.12
2023-05-12T18:38:52.171Z,58.13
2023-05-12T18:43:56.077Z,60.85
2023-05-12T18:48:58.696Z,64.88
2023-05-12T18:54:01.286Z,71.57
2023-05-12T18:59:05.211Z,74.14
2023-05-12T19:04:07.830Z,83.51
2023-05-12T19:09:10.477Z,92.84
2023-05-12T19:14:15.932Z,97.65
2023-05-12T19:19:18.726Z,100.00
2023-05-12T19:24:23.238Z,100.00
2023-05-12T19:29:27.219Z,100.00
2023-05-12T19:34:31.489Z,100.00
2023-05-12T19:39:34.100Z,100.00
2023-05-12T19:44:38.038Z,100.00
2023-05-12T19:49:40.752Z,100.00
2023-05-12T19:54:43.329Z,100.00
2023-05-12T19:59:47.299Z,100.00
2023-05-12T20:04:49.893Z,100.00
2023-05-12T20:09:52.466Z,100.00
2023-05-12T20:14:56.611Z,100.00
2023-05-12T20:20:01.192Z,100.00
2023-05-12T20:25:04.822Z,100.00
2023-05-12T20:30:10.435Z,100.00
2023-05-12T20:35:13.077Z,100.00
2023-05-12T20:40:15.974Z,100.00
2023-05-12T20:45:20.249Z,100.00
2023-05-12T20:50:23.796Z,100.00
2023-05-12T20:55:26.695Z,100.00
2023-05-12T21:00:30.699Z,100.00
2023-05-12T21:05:33.881Z,100.00
2023-05-12T21:10:39.353Z,100.00
2023-05-12T21:15:43.378Z,100.00
2023-05-12T21:20:46.023Z,100.00
2023-05-12T21:25:49.105Z,100.00
2023-05-12T21:30:53.080Z,100.00
2023-05-12T21:35:55.763Z,100.00
2023-05-12T21:40:58.364Z,100.00
2023-05-12T21:46:04.769Z,100.00
2023-05-12T21:51:07.630Z,100.00
2023-05-12T21:56:10.295Z,100.00
2023-05-12T22:01:14.736Z,100.00
2023-05-12T22:06:17.481Z,100.00
2023-05-12T22:11:21.215Z,100.00
2023-05-12T22:16:38.304Z,100.00
2023-05-12T22:21:43.689Z,100.00
2023-05-12T22:26:46.505Z,100.00
2023-05-12T22:31:50.657Z,100.00
2023-05-12T22:36:53.405Z,100.00
2023-05-12T22:41:55.990Z,100.00
2023-05-12T22:46:59.938Z,100.00
2023-05-12T22:52:02.605Z,100.00
2023-05-12T22:57:05.559Z,100.00
2023-05-12T23:02:09.524Z,100.00
2023-05-12T23:07:12.141Z,100.00
2023-05-12T23:12:14.730Z,100.00
2023-05-12T23:17:20.653Z,100.00
2023-05-12T23:22:23.409Z,100.00
2023-05-12T23:27:26.296Z,100.00
2023-05-12T23:32:30.378Z,100.00
2023-05-12T23:37:33.052Z,100.00
2023-05-12T23:42:35.617Z,100.00
2023-05-12T23:47:39.661Z,100.00
2023-05-12T23:52:42.319Z,100.00
2023-05-12T23:57:44.902Z,100.00
